Time;durP1;ratioP1;P1;durP2;ratioP2;P2;SDS_P1;SDS_P2;PMS_P1;PMS_P2;Temp;Humidity;BMP_temperature;BMP_pressure;BME280_temperature;BME280_humidity;BME280_pressure;Samples;Min_cycle;Max_cycle;Signal;HPM_P1;HPM_P2
2020/12/09 00:01:16;;;;;;;11.20;6.20;;;17.40;47.70;;;;;;5085944;28;20161;-82
2020/12/09 00:03:43;;;;;;;11.35;6.32;;;17.50;47.80;;;;;;5086205;28;20150;-82
2020/12/09 00:06:09;;;;;;;11.15;6.30;;;17.50;47.80;;;;;;5086067;28;20506;-82
2020/12/09 00:08:36;;;;;;;12.32;6.65;;;17.40;47.80;;;;;;5067878;28;20160;-81
2020/12/09 00:11:11;;;;;;;9.45;6.25;;;17.40;47.80;;;;;;5085452;28;20181;-82
2020/12/09 00:13:38;;;;;;;11.48;7.05;;;17.40;47.80;;;;;;5085502;28;20172;-82
2020/12/09 00:16:07;;;;;;;8.50;5.88;;;17.40;47.80;;;;;;5068286;28;20146;-82
2020/12/09 00:18:34;;;;;;;9.00;6.20;;;17.40;47.80;;;;;;5068814;28;20150;-82
2020/12/09 00:21:00;;;;;;;12.82;6.57;;;17.40;47.90;;;;;;5085534;28;20170;-83
2020/12/09 00:23:36;;;;;;;11.63;6.35;;;17.40;48.00;;;;;;5085260;28;20250;-82
2020/12/09 00:26:03;;;;;;;8.57;5.82;;;17.40;48.10;;;;;;5085402;28;20161;-82
2020/12/09 00:28:29;;;;;;;10.75;6.95;;;17.40;47.80;;;;;;5068264;28;20170;-82
2020/12/09 00:30:56;;;;;;;11.00;6.20;;;17.40;48.00;;;;;;5085945;28;20246;-82
2020/12/09 00:33:30;;;;;;;9.02;6.43;;;17.40;48.20;;;;;;5068201;28;20222;-82
2020/12/09 00:35:58;;;;;;;9.65;6.35;;;17.40;48.00;;;;;;5085347;28;20161;-82
2020/12/09 00:38:32;;;;;;;8.40;6.10;;;17.40;48.10;;;;;;5085379;28;20616;-82
2020/12/09 00:41:01;;;;;;;11.48;6.18;;;17.40;48.10;;;;;;5085517;28;20244;-82
2020/12/09 00:43:30;;;;;;;9.90;6.20;;;17.40;48.20;;;;;;5086102;28;20676;-82
2020/12/09 00:45:57;;;;;;;9.55;6.30;;;17.40;48.30;;;;;;5085527;28;20153;-82
2020/12/09 00:48:32;;;;;;;10.82;6.95;;;17.30;48.30;;;;;;5085719;28;20157;-82
2020/12/09 00:50:59;;;;;;;8.75;6.20;;;17.30;48.50;;;;;;5085198;28;20248;-83
2020/12/09 00:53:27;;;;;;;11.93;6.68;;;17.30;48.40;;;;;;5067315;28;20146;-82
2020/12/09 00:55:54;;;;;;;11.23;6.47;;;17.30;48.20;;;;;;5085439;28;20198;-82
2020/12/09 00:58:29;;;;;;;12.23;6.25;;;17.30;48.30;;;;;;5085792;28;20244;-82
2020/12/09 01:01:05;;;;;;;10.00;6.10;;;17.40;48.20;;;;;;5085315;28;20164;-82
2020/12/09 01:03:32;;;;;;;8.85;6.20;;;17.30;48.20;;;;;;5085301;28;20169;-82
2020/12/09 01:06:07;;;;;;;7.80;5.88;;;17.30;48.40;;;;;;5067988;28;20172;-82
2020/12/09 01:08:42;;;;;;;10.07;6.60;;;17.30;48.40;;;;;;5085253;28;20163;-81
2020/12/09 01:11:12;;;;;;;9.18;5.93;;;17.30;48.30;;;;;;5085462;28;20264;-81
2020/12/09 01:13:43;;;;;;;11.93;6.40;;;17.30;48.30;;;;;;5085225;28;20158;-80
2020/12/09 01:16:16;;;;;;;10.65;6.70;;;17.30;48.20;;;;;;5085137;28;20160;-81
2020/12/09 01:18:51;;;;;;;10.98;6.55;;;17.30;48.20;;;;;;5085758;28;20215;-81
2020/12/09 01:21:34;;;;;;;9.70;5.95;;;17.30;48.20;;;;;;5084750;28;20659;-82
2020/12/09 01:24:01;;;;;;;11.95;6.15;;;17.30;48.20;;;;;;5085060;28;20161;-81
2020/12/09 01:26:28;;;;;;;8.45;6.13;;;17.30;48.40;;;;;;5085409;28;20157;-81
2020/12/09 01:28:55;;;;;;;9.43;6.05;;;17.40;49.10;;;;;;5085571;28;20240;-82
2020/12/09 01:31:22;;;;;;;9.15;6.05;;;17.40;48.30;;;;;;5085255;28;20185;-81
2020/12/09 01:33:49;;;;;;;8.98;6.45;;;17.30;48.20;;;;;;5069132;28;20185;-82
2020/12/09 01:36:34;;;;;;;10.23;6.28;;;17.30;48.30;;;;;;5071215;28;20170;-81
2020/12/09 01:39:01;;;;;;;10.32;6.00;;;17.40;48.30;;;;;;5069033;28;20532;-82
2020/12/09 01:41:35;;;;;;;9.30;5.63;;;17.30;48.30;;;;;;5089525;28;20160;-81
2020/12/09 01:44:10;;;;;;;10.07;6.68;;;17.30;48.30;;;;;;5089237;28;20165;-81
2020/12/09 01:46:36;;;;;;;9.20;5.97;;;17.30;48.30;;;;;;5070683;28;20157;-81
2020/12/09 01:49:03;;;;;;;9.95;6.03;;;17.30;48.40;;;;;;5071434;28;20162;-81
2020/12/09 01:51:33;;;;;;;9.65;5.97;;;17.30;48.50;;;;;;5088314;28;20315;-82
2020/12/09 01:54:00;;;;;;;10.85;6.28;;;17.30;48.40;;;;;;5071155;28;20153;-82
2020/12/09 01:56:26;;;;;;;9.85;6.22;;;17.30;48.40;;;;;;5088570;28;20165;-81
2020/12/09 01:58:53;;;;;;;10.15;6.28;;;17.30;48.30;;;;;;5070732;28;20605;-81
2020/12/09 02:01:20;;;;;;;10.82;6.55;;;17.30;48.40;;;;;;5089073;28;20624;-81
2020/12/09 02:03:55;;;;;;;10.80;6.53;;;17.30;48.40;;;;;;5088252;28;20158;-81
2020/12/09 02:06:22;;;;;;;10.05;6.50;;;17.30;48.30;;;;;;5070430;28;20160;-81
2020/12/09 02:08:56;;;;;;;9.88;6.00;;;17.30;48.30;;;;;;5088980;28;20169;-81
2020/12/09 02:11:30;;;;;;;10.27;6.30;;;17.30;48.60;;;;;;5088657;28;20207;-81
2020/12/09 02:13:55;;;;;;;12.15;7.00;;;17.30;48.40;;;;;;5053807;28;20295;-81
2020/12/09 02:16:22;;;;;;;9.65;5.88;;;17.40;48.50;;;;;;5088525;28;20176;-81
2020/12/09 02:18:47;;;;;;;9.13;6.88;;;17.30;48.50;;;;;;5088141;28;20177;-81
2020/12/09 02:21:19;;;;;;;9.43;6.15;;;17.30;48.50;;;;;;5088044;28;20183;-82
2020/12/09 02:23:48;;;;;;;8.18;6.07;;;17.30;48.60;;;;;;5070859;28;20172;-81
2020/12/09 02:26:14;;;;;;;10.95;6.45;;;17.30;48.60;;;;;;5087841;28;20174;-82
2020/12/09 02:28:41;;;;;;;11.23;6.65;;;17.20;48.70;;;;;;5070270;28;20161;-81
2020/12/09 02:31:10;;;;;;;10.30;5.90;;;17.20;48.60;;;;;;5087997;28;20227;-81
2020/12/09 02:33:36;;;;;;;10.20;6.32;;;17.30;48.70;;;;;;5088166;28;20155;-81
2020/12/09 02:36:02;;;;;;;10.30;6.30;;;17.30;48.60;;;;;;5087703;28;20177;-81
2020/12/09 02:38:37;;;;;;;11.73;6.95;;;17.30;48.50;;;;;;5088330;28;20229;-82
2020/12/09 02:41:11;;;;;;;11.57;7.03;;;17.30;48.80;;;;;;5087985;28;20157;-81
2020/12/09 02:43:39;;;;;;;9.50;6.50;;;17.30;48.60;;;;;;5069809;28;20149;-82
2020/12/09 02:46:06;;;;;;;15.40;7.05;;;17.30;48.60;;;;;;5087520;28;20153;-81
2020/12/09 02:48:34;;;;;;;12.07;6.30;;;17.20;48.60;;;;;;5069909;28;20323;-81
2020/12/09 02:51:01;;;;;;;9.77;5.90;;;17.20;48.60;;;;;;5069910;28;20189;-81
2020/12/09 02:53:28;;;;;;;9.48;6.13;;;17.30;48.50;;;;;;5069671;28;20188;-81
2020/12/09 02:55:56;;;;;;;9.70;6.22;;;17.20;48.80;;;;;;5070146;28;20232;-81
2020/12/09 02:58:25;;;;;;;9.93;6.00;;;17.30;48.70;;;;;;5053592;28;20161;-81
2020/12/09 03:00:52;;;;;;;10.95;6.93;;;17.20;48.60;;;;;;5070637;28;20164;-81
2020/12/09 03:03:20;;;;;;;8.75;5.78;;;17.20;48.70;;;;;;5088631;28;20176;-82
2020/12/09 03:05:49;;;;;;;11.30;5.97;;;17.20;48.70;;;;;;5087381;28;20161;-81
2020/12/09 03:08:15;;;;;;;10.35;6.40;;;17.20;48.60;;;;;;5087824;28;20161;-81
2020/12/09 03:10:42;;;;;;;10.25;6.38;;;17.20;48.80;;;;;;5087617;28;20185;-82
2020/12/09 03:13:10;;;;;;;9.32;6.53;;;17.30;48.80;;;;;;5086722;28;20157;-82
2020/12/09 03:15:36;;;;;;;8.77;6.10;;;17.20;48.70;;;;;;5087459;28;20223;-81
2020/12/09 03:18:03;;;;;;;11.82;7.25;;;17.20;48.80;;;;;;5087235;28;20154;-81
2020/12/09 03:20:30;;;;;;;10.52;6.38;;;17.20;48.70;;;;;;5087581;28;20150;-81
2020/12/09 03:23:04;;;;;;;10.80;6.75;;;17.20;48.80;;;;;;5069345;28;20212;-81
2020/12/09 03:25:32;;;;;;;10.32;6.47;;;17.20;48.90;;;;;;5068817;28;20184;-81
2020/12/09 03:27:58;;;;;;;8.60;6.22;;;17.20;48.90;;;;;;5069549;28;20170;-82
2020/12/09 03:30:25;;;;;;;8.60;6.05;;;17.20;48.90;;;;;;5068916;28;20221;-81
2020/12/09 03:32:50;;;;;;;9.60;6.25;;;17.20;48.90;;;;;;5086951;28;20521;-81
2020/12/09 03:35:25;;;;;;;10.25;6.45;;;17.20;48.90;;;;;;5086548;28;20160;-81
2020/12/09 03:37:51;;;;;;;9.23;6.18;;;17.20;48.90;;;;;;5086841;28;20179;-81
2020/12/09 03:40:17;;;;;;;9.48;6.28;;;17.20;49.00;;;;;;5086290;28;20203;-81
2020/12/09 03:42:43;;;;;;;8.82;6.25;;;17.20;48.90;;;;;;5086927;28;20161;-81
2020/12/09 03:45:10;;;;;;;9.85;5.70;;;17.20;48.90;;;;;;5087470;28;20161;-82
2020/12/09 03:47:36;;;;;;;12.23;6.18;;;17.20;48.90;;;;;;5069613;28;20184;-82
2020/12/09 03:50:04;;;;;;;11.95;6.57;;;17.20;49.00;;;;;;5086266;28;20538;-81
2020/12/09 03:52:31;;;;;;;8.73;5.85;;;17.20;49.10;;;;;;5086455;28;20142;-82
2020/12/09 03:54:57;;;;;;;11.30;6.10;;;17.20;48.90;;;;;;5086660;28;20157;-82
2020/12/09 03:57:24;;;;;;;11.88;5.57;;;17.20;49.00;;;;;;5086384;28;20149;-81
2020/12/09 03:59:54;;;;;;;9.05;6.20;;;17.20;49.00;;;;;;5086197;28;20516;-81
2020/12/09 04:02:20;;;;;;;9.07;6.30;;;17.20;49.10;;;;;;5086854;28;20173;-82
2020/12/09 04:04:49;;;;;;;10.13;6.05;;;17.20;49.00;;;;;;5086605;28;20169;-82
2020/12/09 04:07:15;;;;;;;8.77;6.13;;;17.20;49.00;;;;;;5085770;28;20173;-81
2020/12/09 04:09:42;;;;;;;10.70;6.70;;;17.20;49.00;;;;;;5085788;28;20671;-81
2020/12/09 04:12:10;;;;;;;10.00;6.43;;;17.20;49.00;;;;;;5068679;28;20161;-81
2020/12/09 04:14:36;;;;;;;11.70;6.65;;;17.20;49.00;;;;;;5086698;28;20205;-81
2020/12/09 04:17:01;;;;;;;8.05;5.93;;;17.20;49.10;;;;;;5086506;28;20184;-81
2020/12/09 04:19:27;;;;;;;7.20;5.90;;;17.20;49.00;;;;;;5086546;28;20157;-81
2020/12/09 04:21:53;;;;;;;11.27;6.43;;;17.20;48.90;;;;;;5086093;28;20628;-81
2020/12/09 04:24:24;;;;;;;10.57;6.15;;;17.20;49.00;;;;;;5086615;28;20162;-81
2020/12/09 04:26:51;;;;;;;10.02;5.80;;;17.20;49.10;;;;;;5086435;28;20232;-81
2020/12/09 04:29:17;;;;;;;10.00;6.25;;;17.20;49.20;;;;;;5068018;28;20640;-81
2020/12/09 04:31:42;;;;;;;10.38;5.80;;;17.20;49.20;;;;;;5068297;28;20213;-81
2020/12/09 04:34:09;;;;;;;10.40;6.55;;;17.20;49.00;;;;;;5067767;28;20157;-81
2020/12/09 04:36:36;;;;;;;10.20;5.75;;;17.20;49.10;;;;;;5067873;28;20161;-81
2020/12/09 04:39:04;;;;;;;10.48;5.97;;;17.20;49.10;;;;;;5051539;28;20166;-81
2020/12/09 04:41:30;;;;;;;9.50;6.25;;;17.20;49.20;;;;;;5085659;28;20254;-81
2020/12/09 04:43:56;;;;;;;8.32;5.57;;;17.20;49.20;;;;;;5086261;28;20162;-81
2020/12/09 04:46:22;;;;;;;9.35;5.80;;;17.10;49.20;;;;;;5086364;28;20203;-81
2020/12/09 04:48:59;;;;;;;8.23;5.97;;;17.20;48.90;;;;;;5085417;28;20158;-81
2020/12/09 04:51:48;;;;;;;8.07;5.70;;;17.20;49.00;;;;;;5067963;28;20180;-81
2020/12/09 04:54:18;;;;;;;9.45;5.90;;;17.20;49.00;;;;;;5085085;28;20153;-81
2020/12/09 04:56:57;;;;;;;9.30;6.53;;;17.30;48.50;;;;;;5083939;28;20141;-81
2020/12/09 04:59:24;;;;;;;8.57;5.72;;;17.30;48.50;;;;;;5048527;28;20530;-81
2020/12/09 05:02:06;;;;;;;8.57;5.97;;;17.40;48.10;;;;;;5048632;28;20177;-82
2020/12/09 05:04:33;;;;;;;8.73;6.25;;;17.50;48.00;;;;;;5065579;28;20248;-82
2020/12/09 05:07:09;;;;;;;8.52;6.28;;;17.50;48.00;;;;;;5063472;28;20161;-81
2020/12/09 05:09:40;;;;;;;10.32;6.10;;;17.50;48.00;;;;;;5065855;28;20148;-81
2020/12/09 05:12:07;;;;;;;10.25;6.45;;;17.50;47.90;;;;;;5081920;28;20171;-82
2020/12/09 05:14:35;;;;;;;8.02;6.00;;;17.50;48.00;;;;;;5064278;28;20575;-81
2020/12/09 05:17:10;;;;;;;7.53;5.90;;;17.50;47.80;;;;;;5082569;28;20162;-82
2020/12/09 05:19:38;;;;;;;8.35;5.78;;;17.60;47.60;;;;;;5065483;28;20156;-82
2020/12/09 05:22:08;;;;;;;8.32;5.75;;;17.60;47.60;;;;;;5048644;28;20627;-82
2020/12/09 05:24:35;;;;;;;9.43;5.72;;;17.60;47.80;;;;;;5082981;28;20260;-81
2020/12/09 05:27:03;;;;;;;10.20;5.88;;;17.50;47.70;;;;;;5083507;28;20154;-81
2020/12/09 05:29:29;;;;;;;7.85;5.80;;;17.60;47.60;;;;;;5083292;28;20171;-81
2020/12/09 05:32:00;;;;;;;8.15;5.90;;;17.60;47.50;;;;;;5064948;28;20217;-81
2020/12/09 05:34:26;;;;;;;8.85;5.63;;;17.60;47.70;;;;;;5082090;28;20160;-81
2020/12/09 05:36:53;;;;;;;7.90;5.82;;;17.60;47.60;;;;;;5081958;28;20228;-81
2020/12/09 05:39:19;;;;;;;7.43;5.53;;;17.60;47.50;;;;;;5062723;28;20700;-81
2020/12/09 05:41:45;;;;;;;7.80;5.53;;;17.60;47.50;;;;;;5079544;28;20188;-81
2020/12/09 05:44:15;;;;;;;7.43;5.45;;;17.60;47.60;;;;;;5081770;28;20233;-81
2020/12/09 05:47:03;;;;;;;8.60;5.72;;;17.50;47.70;;;;;;5065879;28;20154;-82
2020/12/09 05:49:32;;;;;;;8.00;6.30;;;17.50;47.60;;;;;;5049736;28;20154;-82
2020/12/09 05:52:14;;;;;;;8.02;5.50;;;17.50;48.00;;;;;;5065557;28;20150;-81
2020/12/09 05:54:49;;;;;;;9.55;5.53;;;17.60;47.60;;;;;;5082798;28;20248;-81
2020/12/09 05:57:16;;;;;;;7.32;5.30;;;17.50;47.70;;;;;;5066062;28;20163;-81
2020/12/09 05:59:44;;;;;;;9.10;5.60;;;17.50;47.70;;;;;;5048496;28;20177;-81
2020/12/09 06:02:15;;;;;;;6.72;5.50;;;17.60;47.50;;;;;;5065021;28;20184;-81
2020/12/09 06:05:04;;;;;;;6.45;5.32;;;17.60;47.40;;;;;;5064919;28;20316;-81
2020/12/09 06:07:31;;;;;;;8.30;5.90;;;17.60;47.50;;;;;;5083133;28;20157;-81
2020/12/09 06:10:25;;;;;;;8.52;6.00;;;17.60;47.60;;;;;;5082954;28;20706;-81
2020/12/09 06:12:59;;;;;;;7.70;5.35;;;17.60;47.60;;;;;;5060651;28;20628;-80
2020/12/09 06:15:48;;;;;;;7.68;5.40;;;17.60;47.50;;;;;;5048867;28;20217;-81
2020/12/09 06:18:14;;;;;;;7.28;5.38;;;17.50;47.50;;;;;;5062399;28;20173;-81
2020/12/09 06:20:41;;;;;;;7.15;5.72;;;17.60;47.30;;;;;;5051338;28;20169;-81
2020/12/09 06:23:15;;;;;;;8.45;5.97;;;17.60;47.40;;;;;;5051676;28;20157;-82
2020/12/09 06:25:46;;;;;;;7.05;4.93;;;17.60;47.50;;;;;;5085048;28;20157;-81
2020/12/09 06:28:22;;;;;;;7.15;5.20;;;17.50;47.50;;;;;;5065592;28;20162;-81
2020/12/09 06:30:49;;;;;;;7.80;5.45;;;17.50;47.40;;;;;;5066949;28;20199;-81
2020/12/09 06:33:30;;;;;;;7.97;5.75;;;17.60;47.60;;;;;;5085544;28;20153;-81
2020/12/09 06:36:25;;;;;;;7.38;5.15;;;17.60;47.30;;;;;;5066833;28;20233;-81
2020/12/09 06:39:16;;;;;;;8.95;5.63;;;17.60;47.50;;;;;;5083925;28;20185;-81
2020/12/09 06:41:50;;;;;;;8.13;5.30;;;17.50;47.60;;;;;;5084356;28;20229;-81
2020/12/09 06:44:18;;;;;;;6.95;4.80;;;17.40;47.60;;;;;;5084163;28;20541;-81
2020/12/09 06:46:48;;;;;;;6.88;5.20;;;17.40;47.50;;;;;;5083553;28;20154;-81
2020/12/09 06:49:30;;;;;;;8.35;5.68;;;17.60;47.30;;;;;;5084426;28;20511;-81
2020/12/09 06:51:58;;;;;;;7.47;5.70;;;17.50;47.30;;;;;;5086835;28;20149;-81
2020/12/09 06:54:40;;;;;;;6.00;4.95;;;17.50;47.40;;;;;;5079355;28;20154;-80
2020/12/09 06:57:25;;;;;;;7.97;5.18;;;17.60;47.00;;;;;;5044400;28;20616;-80
2020/12/09 07:00:09;;;;;;;8.05;5.43;;;17.50;47.30;;;;;;5048969;28;20161;-81
2020/12/09 07:02:34;;;;;;;8.55;5.70;;;17.60;47.30;;;;;;5079852;28;20160;-80
2020/12/09 07:05:00;;;;;;;7.70;5.57;;;17.50;47.40;;;;;;5061421;28;20166;-80
2020/12/09 07:07:28;;;;;;;7.50;5.53;;;17.50;47.30;;;;;;5077285;28;20524;-80
2020/12/09 07:09:59;;;;;;;6.82;5.18;;;17.50;47.40;;;;;;5080746;28;20749;-80
2020/12/09 07:12:25;;;;;;;6.47;5.35;;;17.50;47.20;;;;;;5079782;28;20188;-81
2020/12/09 07:14:53;;;;;;;7.03;5.30;;;17.50;47.40;;;;;;5060246;28;20213;-80
2020/12/09 07:17:21;;;;;;;7.72;5.35;;;17.50;47.40;;;;;;5048655;28;20165;-80
2020/12/09 07:19:47;;;;;;;6.80;5.22;;;17.50;47.30;;;;;;5030098;28;20540;-81
2020/12/09 07:22:13;;;;;;;7.60;5.32;;;17.50;48.00;;;;;;5077507;28;20168;-81
2020/12/09 07:24:39;;;;;;;7.20;5.05;;;17.50;48.20;;;;;;5076643;28;20172;-81
2020/12/09 07:27:05;;;;;;;6.50;4.68;;;17.50;47.40;;;;;;5058941;28;20612;-81
2020/12/09 07:29:30;;;;;;;6.55;5.15;;;17.40;47.50;;;;;;5054135;28;20170;-82
2020/12/09 07:32:01;;;;;;;8.93;5.78;;;17.50;47.60;;;;;;5058173;28;20175;-82
2020/12/09 07:34:30;;;;;;;7.85;5.70;;;17.50;47.70;;;;;;5041352;28;20243;-82
2020/12/09 07:36:57;;;;;;;7.82;5.05;;;17.40;47.70;;;;;;5059783;28;20253;-80
2020/12/09 07:39:50;;;;;;;8.15;5.25;;;17.40;47.70;;;;;;5041289;28;20228;-81
2020/12/09 07:42:21;;;;;;;7.65;5.53;;;17.40;47.70;;;;;;5035978;28;21138;-80
2020/12/09 07:44:56;;;;;;;6.80;5.07;;;17.50;47.60;;;;;;5055816;28;20154;-80
2020/12/09 07:47:42;;;;;;;7.57;5.38;;;17.60;47.70;;;;;;5039360;28;20154;-80
2020/12/09 07:50:08;;;;;;;6.90;4.95;;;17.50;47.60;;;;;;5036042;28;20212;-80
2020/12/09 07:52:40;;;;;;;7.65;5.43;;;17.60;47.60;;;;;;5021390;28;20162;-81
2020/12/09 07:55:12;;;;;;;10.43;5.25;;;17.70;47.40;;;;;;5056475;28;20220;-80
2020/12/09 07:57:38;;;;;;;6.47;4.78;;;17.60;47.60;;;;;;5023037;28;20157;-80
2020/12/09 08:00:07;;;;;;;6.80;5.45;;;17.70;47.40;;;;;;5031660;28;20212;-80
2020/12/09 08:02:38;;;;;;;9.63;5.25;;;17.70;47.50;;;;;;5026804;28;20213;-81
2020/12/09 08:05:13;;;;;;;7.43;5.35;;;17.70;47.50;;;;;;5046267;28;20174;-80
2020/12/09 08:07:54;;;;;;;6.18;4.93;;;17.60;47.40;;;;;;5025845;28;20689;-79
2020/12/09 08:10:35;;;;;;;8.32;5.22;;;17.60;47.60;;;;;;5044635;28;20197;-79
2020/12/09 08:13:05;;;;;;;6.80;5.13;;;17.60;47.40;;;;;;5041756;28;20204;-80
2020/12/09 08:15:32;;;;;;;7.15;4.90;;;17.60;47.50;;;;;;5055764;28;20228;-81
2020/12/09 08:18:01;;;;;;;8.13;5.32;;;17.60;47.60;;;;;;5065788;28;20158;-81
2020/12/09 08:20:27;;;;;;;6.80;5.10;;;17.60;47.70;;;;;;5052815;28;20166;-80
2020/12/09 08:23:02;;;;;;;7.22;5.43;;;17.60;47.60;;;;;;5050445;28;20204;-81
2020/12/09 08:25:32;;;;;;;7.25;4.93;;;17.60;47.50;;;;;;5061494;28;20177;-79
2020/12/09 08:28:27;;;;;;;7.15;5.00;;;17.70;47.40;;;;;;5063853;28;20193;-80
2020/12/09 08:30:55;;;;;;;7.47;5.00;;;17.80;47.20;;;;;;4983207;28;20274;-80
2020/12/09 08:33:45;;;;;;;6.97;5.18;;;17.80;47.30;;;;;;4985709;28;20184;-80
2020/12/09 08:36:11;;;;;;;6.60;5.00;;;17.80;47.20;;;;;;4983010;28;20184;-81
2020/12/09 08:38:54;;;;;;;;;;;;;;;;;;;;;
2020/12/09 08:45:10;;;;;;;6.75;4.70;;;17.70;47.30;;;;;;5002783;28;20235;-79
2020/12/09 08:47:57;;;;;;;7.20;5.10;;;17.80;47.20;;;;;;4971301;28;20704;-80
2020/12/09 08:50:23;;;;;;;6.88;4.88;;;17.80;47.00;;;;;;4954134;28;20745;-80
2020/12/09 08:53:12;;;;;;;7.68;5.22;;;17.80;47.00;;;;;;4954636;28;20164;-82
2020/12/09 08:55:42;;;;;;;9.15;5.05;;;18.00;46.90;;;;;;4964083;29;20217;-81
2020/12/09 08:58:59;;;;;;;8.27;4.78;;;17.90;47.00;;;;;;4946077;29;20181;-80
2020/12/09 09:01:47;;;;;;;9.73;4.80;;;18.00;47.30;;;;;;4925578;29;20193;-81
2020/12/09 09:05:10;;;;;;;8.73;4.95;;;17.90;48.10;;;;;;4894812;29;20527;-80
2020/12/09 09:07:43;;;;;;;7.40;4.80;;;17.90;47.60;;;;;;4883315;29;20239;-80
2020/12/09 09:10:14;;;;;;;8.90;5.28;;;17.90;47.60;;;;;;4889595;29;20211;-81
2020/12/09 09:13:04;;;;;;;8.50;4.80;;;17.90;47.30;;;;;;4888129;29;20198;-81
2020/12/09 09:15:39;;;;;;;7.43;4.85;;;18.00;47.50;;;;;;4891360;29;20222;-81
2020/12/09 09:18:18;;;;;;;6.80;4.70;;;18.00;47.40;;;;;;4890239;29;20227;-79
2020/12/09 09:20:54;;;;;;;9.80;4.85;;;18.00;47.60;;;;;;4890149;29;20190;-81
2020/12/09 09:27:17;;;;;;;6.03;4.75;;;18.00;47.40;;;;;;4815872;29;20194;-80
2020/12/09 09:30:10;;;;;;;6.88;4.50;;;17.90;47.70;;;;;;4814860;29;20655;-79
2020/12/09 09:32:58;;;;;;;;;;;;;;;;;;;;;
2020/12/09 09:35:24;;;;;;;6.20;4.35;;;17.90;47.90;;;;;;4762464;30;20319;-80
2020/12/09 09:37:53;;;;;;;5.90;4.25;;;17.90;47.80;;;;;;4785020;29;20236;-80
2020/12/09 09:40:23;;;;;;;9.05;5.07;;;17.90;47.60;;;;;;4801790;29;20214;-81
2020/12/09 09:42:54;;;;;;;7.95;5.18;;;18.00;47.70;;;;;;4832894;29;20196;-80
2020/12/09 09:45:38;;;;;;;8.82;4.60;;;18.00;47.80;;;;;;4816045;29;20197;-80
2020/12/09 09:48:14;;;;;;;8.07;4.88;;;18.00;47.60;;;;;;4831753;29;20176;-80
2020/12/09 09:51:21;;;;;;;8.48;5.07;;;18.10;47.70;;;;;;4848893;29;20244;-80
2020/12/09 09:53:55;;;;;;;8.93;4.55;;;18.10;47.80;;;;;;4832515;29;20233;-79
2020/12/09 09:56:22;;;;;;;8.65;4.93;;;18.10;47.50;;;;;;4836476;29;20189;-80
2020/12/09 09:58:54;;;;;;;9.07;4.70;;;18.10;47.60;;;;;;4838577;29;20231;-80
2020/12/09 10:01:22;;;;;;;11.85;4.85;;;18.10;47.70;;;;;;4824648;29;20189;-79
2020/12/09 10:03:56;;;;;;;6.40;4.72;;;18.10;47.70;;;;;;4884695;29;20676;-79
2020/12/09 10:06:23;;;;;;;15.55;4.60;;;18.10;47.80;;;;;;4949364;29;20169;-79
2020/12/09 10:08:52;;;;;;;6.45;4.28;;;18.10;47.60;;;;;;4994787;28;20189;-78
2020/12/09 10:11:22;;;;;;;7.03;4.57;;;18.10;47.80;;;;;;5063604;28;20253;-79
2020/12/09 10:13:48;;;;;;;8.73;4.68;;;18.10;47.60;;;;;;5063257;28;20203;-79
2020/12/09 10:16:23;;;;;;;5.72;4.50;;;18.10;47.70;;;;;;5013113;28;20170;-79
2020/12/09 10:18:50;;;;;;;9.85;4.80;;;18.10;47.50;;;;;;5062130;28;20158;-79
2020/12/09 10:21:50;;;;;;;5.03;3.90;;;18.10;47.80;;;;;;5059639;28;20162;-80
2020/12/09 10:24:28;;;;;;;5.75;4.55;;;18.10;47.80;;;;;;5057040;28;20190;-80
2020/12/09 10:30:19;;;;;;;6.25;4.40;;;18.10;47.90;;;;;;4985322;28;20207;-81
2020/12/09 10:32:47;;;;;;;7.57;5.05;;;18.10;48.00;;;;;;4978791;28;20546;-81
2020/12/09 10:35:15;;;;;;;7.05;4.13;;;18.00;48.10;;;;;;4979478;28;20187;-81
2020/12/09 10:37:47;;;;;;;7.30;4.53;;;18.00;48.20;;;;;;4996367;28;20191;-80
2020/12/09 10:40:14;;;;;;;6.35;4.47;;;18.00;48.10;;;;;;4997062;28;20184;-82
2020/12/09 10:43:45;;;;;;;;;;;;;;;;;;;;;
2020/12/09 10:46:47;;;;;;;;;;;;;;;;;;;;;
2020/12/09 11:00:50;;;;;;;;;;;;;;;;;;;;;
2020/12/09 11:21:33;;;;;;;;;;;;;;;;;;;;;
2020/12/09 11:24:03;;;;;;;9.07;4.40;;;18.00;48.10;;;;;;4776421;30;20363;-84
2020/12/09 11:29:57;;;;;;;6.60;4.65;;;18.00;48.20;;;;;;4747382;30;20209;-81
2020/12/09 11:32:52;;;;;;;9.30;4.78;;;18.00;48.30;;;;;;4771222;29;20204;-82
2020/12/09 11:35:59;;;;;;;;;;;;;;;;;;;;;
2020/12/09 11:38:50;;;;;;;7.85;4.63;;;18.00;48.10;;;;;;4856021;29;20184;-83
2020/12/09 11:41:21;;;;;;;9.95;4.25;;;18.00;48.20;;;;;;4849346;29;20267;-80
2020/12/09 11:44:03;;;;;;;8.52;4.88;;;18.00;48.00;;;;;;4936738;28;20188;-80
2020/12/09 11:46:28;;;;;;;6.43;4.20;;;18.00;48.20;;;;;;4944978;28;20198;-81
2020/12/09 11:48:55;;;;;;;5.63;3.60;;;18.10;48.00;;;;;;4961424;28;20632;-82
2020/12/09 11:51:22;;;;;;;7.22;4.40;;;18.00;48.00;;;;;;4972310;28;20311;-83
2020/12/09 11:53:48;;;;;;;7.60;4.20;;;18.00;48.10;;;;;;4980092;28;20201;-81
2020/12/09 11:56:23;;;;;;;10.10;4.32;;;18.00;48.20;;;;;;4979852;28;20184;-81
2020/12/09 11:58:49;;;;;;;8.57;4.50;;;18.00;48.30;;;;;;4978470;28;20219;-80
2020/12/09 12:01:15;;;;;;;6.22;4.45;;;18.00;48.20;;;;;;4993733;28;20172;-80
2020/12/09 12:03:41;;;;;;;9.80;4.60;;;18.00;48.20;;;;;;4977517;28;20703;-79
2020/12/09 12:06:17;;;;;;;;;;;;;;;;;;;;;
2020/12/09 12:08:54;;;;;;;5.88;4.47;;;18.10;48.00;;;;;;5004430;28;20187;-80
2020/12/09 12:11:47;;;;;;;7.72;4.35;;;18.10;48.00;;;;;;5030096;28;20228;-83
2020/12/09 12:14:24;;;;;;;6.30;4.18;;;18.10;48.00;;;;;;5059789;28;20555;-81
2020/12/09 12:17:10;;;;;;;;;;;;;;;;;;;;;
2020/12/09 12:19:54;;;;;;;7.05;4.30;;;18.00;47.90;;;;;;5073499;28;20687;-81
2020/12/09 12:22:25;;;;;;;12.13;4.05;;;18.10;47.80;;;;;;5058639;28;20188;-81
2020/12/09 12:25:11;;;;;;;5.90;4.05;;;18.10;47.90;;;;;;5074205;28;20164;-81
2020/12/09 12:27:48;;;;;;;5.53;4.10;;;18.10;48.00;;;;;;5071713;28;20157;-80
2020/12/09 12:30:17;;;;;;;6.75;3.85;;;18.00;48.00;;;;;;5076167;28;20213;-83
2020/12/09 12:32:51;;;;;;;8.30;4.32;;;18.10;47.90;;;;;;5073533;28;20180;-82
2020/12/09 12:35:19;;;;;;;8.48;4.13;;;18.00;47.90;;;;;;5074692;28;20198;-84
2020/12/09 12:37:46;;;;;;;7.38;4.32;;;18.00;48.00;;;;;;5073016;28;20184;-84
2020/12/09 12:40:12;;;;;;;5.55;4.38;;;18.00;47.70;;;;;;5074811;28;20154;-81
2020/12/09 12:42:42;;;;;;;6.40;4.35;;;18.10;47.80;;;;;;5056894;28;20315;-84
2020/12/09 12:45:09;;;;;;;7.47;4.32;;;18.10;47.80;;;;;;5078887;28;20358;-88
2020/12/09 12:47:36;;;;;;;6.00;4.00;;;18.10;47.90;;;;;;5061958;28;20230;-83
2020/12/09 12:50:05;;;;;;;5.93;4.20;;;18.00;47.80;;;;;;5078400;28;20205;-84
2020/12/09 12:52:32;;;;;;;5.93;4.15;;;18.00;47.80;;;;;;5042392;28;20169;-82
2020/12/09 12:54:58;;;;;;;9.50;4.35;;;18.10;47.50;;;;;;5072753;28;20166;-81
2020/12/09 12:57:46;;;;;;;5.95;4.30;;;18.10;47.70;;;;;;5049568;28;20178;-80
2020/12/09 13:00:22;;;;;;;6.30;3.88;;;18.10;47.80;;;;;;5057040;28;20158;-81
2020/12/09 13:03:00;;;;;;;7.22;4.55;;;18.10;47.60;;;;;;5070997;28;20620;-82
2020/12/09 13:05:26;;;;;;;6.53;4.13;;;18.20;47.70;;;;;;5074068;28;20295;-80
2020/12/09 13:07:54;;;;;;;5.72;4.18;;;18.10;47.80;;;;;;5071132;28;20169;-81
2020/12/09 13:10:24;;;;;;;6.63;4.50;;;18.10;48.00;;;;;;5055685;28;20576;-81
2020/12/09 13:12:53;;;;;;;5.60;4.05;;;18.10;48.30;;;;;;5075563;28;20208;-82
2020/12/09 13:15:20;;;;;;;5.57;4.10;;;18.20;47.90;;;;;;5058852;28;20721;-80
2020/12/09 13:17:54;;;;;;;6.10;4.30;;;18.20;47.50;;;;;;5075100;28;20168;-81
2020/12/09 13:20:21;;;;;;;6.53;4.40;;;18.20;47.50;;;;;;5057010;28;20166;-82
2020/12/09 13:22:55;;;;;;;7.20;4.50;;;18.10;47.80;;;;;;5073512;28;20162;-81
2020/12/09 13:25:23;;;;;;;6.65;4.10;;;18.10;47.90;;;;;;5079454;28;20608;-80
2020/12/09 13:27:50;;;;;;;6.22;3.90;;;18.20;47.80;;;;;;5080495;28;20162;-83
2020/12/09 13:30:16;;;;;;;7.13;4.38;;;18.20;47.80;;;;;;5064071;28;20193;-80
2020/12/09 13:32:43;;;;;;;9.20;4.43;;;18.10;48.20;;;;;;5065478;28;20142;-82
2020/12/09 13:35:10;;;;;;;8.13;4.35;;;18.10;48.20;;;;;;5081876;28;20172;-79
2020/12/09 13:37:36;;;;;;;5.53;4.15;;;18.10;48.20;;;;;;5061864;28;20174;-78
2020/12/09 13:40:06;;;;;;;5.93;4.03;;;18.20;48.20;;;;;;5064076;28;20170;-80
2020/12/09 13:42:56;;;;;;;5.28;3.88;;;18.10;48.30;;;;;;5065333;28;20236;-80
2020/12/09 13:45:24;;;;;;;5.35;4.18;;;18.10;48.30;;;;;;5080519;28;20187;-81
2020/12/09 13:47:50;;;;;;;8.70;4.30;;;18.20;48.30;;;;;;5065983;28;20551;-81
2020/12/09 13:50:20;;;;;;;6.28;4.00;;;18.10;48.40;;;;;;5071351;28;20312;-82
2020/12/09 13:52:45;;;;;;;7.22;4.25;;;18.10;48.40;;;;;;5086717;28;20154;-80
2020/12/09 13:55:12;;;;;;;6.47;4.05;;;18.10;48.20;;;;;;5066321;28;20156;-82
2020/12/09 13:57:38;;;;;;;6.18;4.07;;;18.20;47.70;;;;;;5063597;28;20169;-82
2020/12/09 14:00:06;;;;;;;5.85;4.30;;;18.30;47.70;;;;;;5066016;28;20622;-80
2020/12/09 14:02:37;;;;;;;5.15;4.13;;;18.30;47.70;;;;;;5080942;28;20158;-82
2020/12/09 14:05:04;;;;;;;6.80;4.28;;;18.20;48.20;;;;;;5081032;28;20150;-79